Time;durP1;ratioP1;P1;durP2;ratioP2;P2;SDS_P1;SDS_P2;PMS_P1;PMS_P2;Temp;Humidity;BMP_temperature;BMP_pressure;BME280_temperature;BME280_humidity;BME280_pressure;Samples;Min_cycle;Max_cycle;Signal;HPM_P1;HPM_P2
2023/01/24 00:04:24;;;;;;;9.23;5.40;;;;;;;21.38;55.49;101611.28;20928494;28;20114;-83
2023/01/24 00:14:24;;;;;;;8.40;5.15;;;;;;;21.35;55.99;101618.50;20936650;28;20044;-83
2023/01/24 00:24:26;;;;;;;7.20;4.95;;;;;;;21.32;55.75;101619.53;20924605;28;20055;-83
2023/01/24 00:34:26;;;;;;;6.90;4.63;;;;;;;21.31;55.81;101625.75;20927765;28;20143;-81
2023/01/24 00:44:27;;;;;;;8.23;5.30;;;;;;;21.27;55.76;101627.72;20940835;28;20501;-83
2023/01/24 00:54:27;;;;;;;7.88;4.85;;;;;;;21.25;55.87;101642.78;20923065;28;20046;-82
2023/01/24 01:04:28;;;;;;;6.80;4.82;;;;;;;21.23;56.23;101646.44;20921430;28;20148;-82
2023/01/24 01:14:28;;;;;;;6.95;4.72;;;;;;;21.25;55.93;101663.00;20934474;28;20741;-83
2023/01/24 01:24:29;;;;;;;7.82;4.93;;;;;;;21.22;55.97;101664.03;20928429;28;20052;-83
2023/01/24 01:34:29;;;;;;;8.35;4.55;;;;;;;21.17;55.93;101662.59;20934695;28;20458;-82
2023/01/24 01:44:47;;;;;;;7.40;4.63;;;;;;;21.16;55.99;101677.53;20927372;28;20048;-84
2023/01/24 01:54:49;;;;;;;5.88;4.28;;;;;;;21.17;55.94;101678.41;20928333;28;20053;-83
2023/01/24 02:05:04;;;;;;;6.40;4.60;;;;;;;21.13;56.00;101688.28;20912001;28;20455;-82
2023/01/24 02:25:34;;;;;;;6.15;4.18;;;;;;;21.09;56.08;101692.84;20931482;28;20045;-83
2023/01/24 02:35:34;;;;;;;5.78;3.78;;;;;;;21.05;56.08;101691.31;20939588;28;20033;-82
2023/01/24 02:45:36;;;;;;;6.63;4.25;;;;;;;21.05;55.83;101693.94;20927163;28;20033;-82
2023/01/24 03:05:58;;;;;;;6.68;3.90;;;;;;;21.03;55.53;101706.38;20936050;28;20032;-83
2023/01/24 03:36:42;;;;;;;7.47;4.30;;;;;;;20.97;55.63;101719.88;20920853;28;20041;-83
2023/01/24 03:46:42;;;;;;;4.93;3.30;;;;;;;20.94;55.60;101718.25;20924555;28;20040;-83
2023/01/24 03:56:45;;;;;;;6.20;3.75;;;;;;;20.92;55.58;101714.88;20925931;28;20049;-83
2023/01/24 04:06:45;;;;;;;6.50;3.77;;;;;;;20.91;55.67;101725.47;20927015;28;20048;-84
2023/01/24 04:16:46;;;;;;;6.10;3.85;;;;;;;20.92;55.41;101730.66;20921400;28;20935;-83
2023/01/24 04:26:46;;;;;;;5.47;3.58;;;;;;;20.89;55.64;101728.19;20934754;28;20052;-82
2023/01/24 04:36:47;;;;;;;6.10;3.55;;;;;;;20.89;55.52;101722.91;20927652;28;20039;-84
2023/01/24 04:46:47;;;;;;;4.88;3.47;;;;;;;20.86;55.39;101717.84;20938555;28;20044;-85
2023/01/24 04:56:48;;;;;;;6.18;3.75;;;;;;;20.90;55.64;101731.69;20906436;28;20048;-83
2023/01/24 05:06:48;;;;;;;5.85;3.90;;;;;;;20.90;55.58;101735.16;20909975;28;20060;-85
2023/01/24 05:16:49;;;;;;;6.78;3.60;;;;;;;20.96;55.95;101741.88;20917633;28;20434;-84
2023/01/24 05:26:50;;;;;;;7.22;3.55;;;;;;;21.03;56.19;101745.00;20915419;28;20052;-82
2023/01/24 05:36:51;;;;;;;13.85;4.47;;;;;;;21.12;56.76;101749.78;20911750;28;20143;-80
2023/01/24 05:46:51;;;;;;;11.48;4.35;;;;;;;21.19;56.36;101750.28;20908466;28;20419;-84
2023/01/24 05:56:52;;;;;;;21.17;5.28;;;;;;;21.26;56.05;101756.91;20890495;28;20105;-85
2023/01/24 06:06:53;;;;;;;32.88;5.32;;;;;;;21.24;53.92;101757.00;20940586;28;20490;-85
2023/01/24 06:16:53;;;;;;;13.75;5.38;;;;;;;21.31;53.08;101772.44;20944607;28;20043;-85
2023/01/24 06:26:54;;;;;;;13.70;4.80;;;;;;;21.37;54.19;101783.50;20957723;28;20082;-84
2023/01/24 06:37:07;;;;;;;12.30;4.82;;;;;;;21.51;54.70;101787.16;20941774;28;20043;-85
2023/01/24 06:47:10;;;;;;;9.77;4.65;;;;;;;21.57;54.23;101792.09;20967734;28;20142;-90
2023/01/24 06:57:10;;;;;;;11.52;4.55;;;;;;;21.60;54.28;101786.66;20942068;28;20302;-82
2023/01/24 07:07:11;;;;;;;10.63;4.63;;;;;;;21.65;53.60;101795.13;20919245;28;20055;-81
2023/01/24 07:17:13;;;;;;;11.07;4.40;;;;;;;21.68;53.40;101802.00;20929894;28;20123;-82
2023/01/24 07:27:13;;;;;;;8.18;4.30;;;;;;;21.69;53.35;101820.41;20945269;28;20067;-77
2023/01/24 07:37:16;;;;;;;9.57;5.45;;;;;;;21.68;51.50;101817.81;20954257;28;20123;-83
2023/01/24 07:47:17;;;;;;;8.68;5.07;;;;;;;21.70;51.91;101821.25;20958649;28;20045;-84
2023/01/24 07:57:18;;;;;;;11.18;5.30;;;;;;;21.72;52.19;101829.91;20958247;28;20045;-85
2023/01/24 08:07:20;;;;;;;10.45;5.55;;;;;;;21.75;52.52;101851.69;20943995;28;20044;-83
2023/01/24 08:17:20;;;;;;;8.35;5.13;;;;;;;21.79;52.38;101852.38;20920576;28;20044;-85
2023/01/24 08:27:22;;;;;;;8.20;5.75;;;;;;;21.80;52.27;101856.72;20935445;28;20061;-83
2023/01/24 08:37:23;;;;;;;11.15;7.90;;;;;;;21.82;52.22;101862.72;20931136;28;20041;-84
2023/01/24 08:47:24;;;;;;;12.38;8.27;;;;;;;21.84;52.00;101867.94;20917626;28;20044;-81
2023/01/24 08:57:25;;;;;;;10.95;6.38;;;;;;;21.88;52.04;101859.72;20939118;28;20044;-84
2023/01/24 09:07:27;;;;;;;16.65;10.52;;;;;;;21.90;52.13;101872.84;20936646;28;20055;-82
2023/01/24 09:17:28;;;;;;;16.35;9.73;;;;;;;21.93;51.94;101875.28;20938434;28;20092;-81
2023/01/24 09:27:29;;;;;;;12.68;8.40;;;;;;;21.96;51.45;101876.91;20946369;28;20052;-84
2023/01/24 09:37:31;;;;;;;11.80;7.85;;;;;;;21.96;51.47;101861.94;20927766;28;20072;-84
2023/01/24 09:47:41;;;;;;;33.65;14.98;;;;;;;21.97;51.18;101861.03;20934093;28;20102;-83
2023/01/24 09:57:49;;;;;;;36.92;13.85;;;;;;;22.02;51.41;101844.91;20923472;28;20132;-84
2023/01/24 10:08:13;;;;;;;30.98;13.50;;;;;;;22.05;51.32;101842.94;20923792;28;20055;-80
2023/01/24 10:18:30;;;;;;;32.63;12.60;;;;;;;22.12;51.78;101827.63;20924954;28;20045;-84
2023/01/24 10:28:43;;;;;;;29.15;12.82;;;;;;;22.13;51.50;101824.03;20923019;28;20071;-84
2023/01/24 10:38:43;;;;;;;;;;;;;;;22.16;51.37;101815.94;20944425;28;20434;-86
2023/01/24 10:48:52;;;;;;;25.85;11.63;;;;;;;22.19;51.74;101802.56;20934402;28;19978;-84
2023/01/24 10:59:03;;;;;;;26.17;11.40;;;;;;;22.18;51.07;101794.72;20871208;28;20453;-85
2023/01/24 11:09:11;;;;;;;22.75;11.00;;;;;;;22.18;50.77;101779.75;20861174;28;20041;-84
2023/01/24 11:19:28;;;;;;;23.75;11.25;;;;;;;22.16;51.53;101763.16;20864995;28;20040;-82
2023/01/24 11:29:32;;;;;;;20.88;10.40;;;;;;;22.14;51.11;101745.75;20891558;28;20466;-88
2023/01/24 11:39:53;;;;;;;18.70;9.85;;;;;;;22.13;51.89;101746.69;20887686;28;20037;-88
2023/01/24 11:50:14;;;;;;;27.02;10.77;;;;;;;22.10;51.49;101737.16;20860273;28;20056;-83
2023/01/24 12:00:32;;;;;;;18.70;10.90;;;;;;;22.10;52.51;101733.69;20923513;28;20075;-83
2023/01/24 12:10:51;;;;;;;18.90;10.85;;;;;;;22.11;52.17;101733.59;20926239;28;20040;-83
2023/01/24 12:21:09;;;;;;;24.65;11.13;;;;;;;22.16;52.73;101717.47;20935077;28;20439;-88
2023/01/24 12:31:19;;;;;;;23.90;10.85;;;;;;;22.21;52.44;101729.44;20950286;28;20101;-87
2023/01/24 12:41:35;;;;;;;22.55;10.57;;;;;;;22.25;53.06;101724.00;20966736;28;20040;-90
2023/01/24 12:51:54;;;;;;;22.17;10.80;;;;;;;22.25;52.62;101721.34;20972527;28;20835;-85
2023/01/24 13:02:16;;;;;;;19.48;9.43;;;;;;;22.22;52.47;101725.84;20965701;28;20056;-81
2023/01/24 13:12:21;;;;;;;16.20;9.13;;;;;;;22.18;52.15;101713.81;20956861;28;20044;-81
2023/01/24 13:22:59;;;;;;;16.70;9.30;;;;;;;22.16;51.73;101718.31;20943347;28;20110;-81
2023/01/24 13:33:03;;;;;;;16.27;9.25;;;;;;;22.15;51.76;101715.78;20949901;28;20542;-83
2023/01/24 13:43:50;;;;;;;19.13;8.52;;;;;;;20.62;35.02;101720.00;20928230;28;20040;-81
2023/01/24 13:54:13;;;;;;;17.73;6.45;;;;;;;21.28;41.80;101731.31;20837101;28;20080;-82
2023/01/24 14:04:15;;;;;;;10.98;5.95;;;;;;;21.47;44.88;101722.38;20914406;28;20044;-81
2023/01/24 14:14:34;;;;;;;16.13;6.60;;;;;;;21.58;46.68;101727.88;20916025;28;20484;-79
2023/01/24 14:25:05;;;;;;;12.57;6.40;;;;;;;21.64;47.58;101730.19;20929946;28;20598;-85
2023/01/24 14:35:19;;;;;;;15.07;6.75;;;;;;;21.74;48.68;101726.06;20952848;28;20056;-78
2023/01/24 14:45:24;;;;;;;20.05;7.93;;;;;;;21.77;48.59;101732.94;20970703;28;20049;-84
2023/01/24 14:55:33;;;;;;;16.88;7.07;;;;;;;21.81;49.29;101723.91;20947124;28;20117;-82
2023/01/24 15:05:36;;;;;;;16.17;7.43;;;;;;;21.84;48.75;101739.56;20936104;28;20041;-83
2023/01/24 15:15:39;;;;;;;20.35;7.90;;;;;;;21.84;49.30;101749.28;20934306;28;20033;-83
2023/01/24 15:25:40;;;;;;;21.87;8.50;;;;;;;21.75;46.07;101762.03;20926417;28;20041;-79
2023/01/24 15:35:45;;;;;;;23.75;9.35;;;;;;;21.46;44.12;101757.56;20927332;28;20278;-78
2023/01/24 15:45:51;;;;;;;22.05;8.98;;;;;;;21.44;44.91;101763.75;20928525;28;20049;-80
2023/01/24 15:55:53;;;;;;;15.05;8.18;;;;;;;21.49;46.52;101770.56;20907705;28;20076;-79
2023/01/24 16:05:53;;;;;;;17.50;8.60;;;;;;;21.47;47.55;101788.25;20922819;28;20056;-79
2023/01/24 16:15:54;;;;;;;13.30;6.88;;;;;;;21.50;47.57;101798.63;20885328;28;20372;-78
2023/01/24 16:25:56;;;;;;;13.13;6.80;;;;;;;21.51;47.72;101788.00;20912269;28;20098;-78
2023/01/24 16:35:57;;;;;;;14.83;7.40;;;;;;;21.49;48.39;101792.50;20870545;28;20090;-77
2023/01/24 16:45:57;;;;;;;16.15;8.70;;;;;;;21.37;46.79;101793.19;20884385;28;20037;-76
2023/01/24 16:55:58;;;;;;;16.27;8.77;;;;;;;21.40;47.31;101806.19;20901048;28;20065;-78
2023/01/24 17:06:09;;;;;;;13.98;7.68;;;;;;;21.38;47.96;101803.63;20905008;28;20044;-82
2023/01/24 17:16:10;;;;;;;15.55;7.68;;;;;;;21.41;49.34;101808.75;20925116;28;20066;-80
2023/01/24 17:26:16;;;;;;;20.90;7.70;;;;;;;21.42;49.76;101814.84;20913737;28;20036;-83
2023/01/24 17:36:18;;;;;;;15.18;8.85;;;;;;;21.47;50.38;101809.31;20930530;28;20037;-76
2023/01/24 17:46:20;;;;;;;40.17;25.02;;;;;;;21.49;51.00;101816.22;20936799;28;20119;-80
2023/01/24 17:56:21;;;;;;;42.40;26.07;;;;;;;21.53;51.06;101823.03;20930010;28;20388;-82
2023/01/24 18:06:22;;;;;;;33.55;23.25;;;;;;;21.51;51.02;101819.63;20923087;28;20434;-80
2023/01/24 18:16:24;;;;;;;33.87;22.63;;;;;;;21.51;50.61;101813.50;20954230;28;21381;-79
2023/01/24 18:26:27;;;;;;;36.85;21.50;;;;;;;21.51;50.29;101818.78;20926438;28;20626;-79
2023/01/24 18:36:28;;;;;;;;;;;;;;;21.58;53.25;101822.78;20961516;28;20094;-85
2023/01/24 18:46:30;;;;;;;36.40;25.02;;;;;;;21.63;55.12;101823.38;20944472;28;19920;-79
2023/01/24 18:56:31;;;;;;;38.70;24.47;;;;;;;21.67;56.02;101824.91;20925400;28;20502;-80
2023/01/24 19:06:34;;;;;;;45.83;23.23;;;;;;;21.69;55.73;101820.41;20928588;28;20453;-77
2023/01/24 19:16:35;;;;;;;;;;;;;;;21.67;55.67;101824.91;20943835;28;20066;-80
2023/01/24 19:26:36;;;;;;;32.33;20.48;;;;;;;21.67;54.88;101830.19;20932056;28;19927;-79
2023/01/24 19:36:38;;;;;;;29.55;18.98;;;;;;;21.64;54.78;101840.03;20947666;28;20032;-80
2023/01/24 19:46:39;;;;;;;35.83;18.53;;;;;;;21.63;54.42;101838.34;20926133;28;20047;-78
2023/01/24 19:56:41;;;;;;;27.67;17.17;;;;;;;21.57;54.00;101840.38;20890642;28;20044;-77
2023/01/24 20:06:42;;;;;;;26.37;16.50;;;;;;;21.58;54.21;101841.22;20898561;28;20040;-76
2023/01/24 20:16:45;;;;;;;28.83;15.93;;;;;;;21.49;52.27;101847.84;20936144;28;20036;-82
2023/01/24 20:26:50;;;;;;;24.37;15.37;;;;;;;21.45;52.52;101846.31;20942790;28;20048;-82
2023/01/24 20:36:51;;;;;;;24.23;15.32;;;;;;;21.40;52.38;101848.38;20928661;28;20036;-83
2023/01/24 20:46:52;;;;;;;25.08;14.68;;;;;;;21.37;52.53;101849.38;20924786;28;20159;-83
2023/01/24 20:56:59;;;;;;;22.13;13.35;;;;;;;21.39;52.65;101851.94;20903543;28;20044;-81
2023/01/24 21:06:59;;;;;;;23.90;13.05;;;;;;;21.35;52.63;101855.66;20917712;28;20044;-83
2023/01/24 21:17:00;;;;;;;22.25;13.18;;;;;;;21.36;52.36;101858.22;20944362;28;20169;-82
2023/01/24 21:27:01;;;;;;;21.67;12.65;;;;;;;21.32;52.64;101859.31;20947386;28;20072;-82
2023/01/24 21:37:02;;;;;;;20.67;12.48;;;;;;;21.29;52.81;101867.41;20922654;28;20040;-82
2023/01/24 21:47:03;;;;;;;20.08;12.52;;;;;;;21.32;52.41;101855.84;20946165;28;20071;-83
2023/01/24 22:07:29;;;;;;;16.98;11.45;;;;;;;21.23;52.67;101854.56;20942617;28;20048;-83
2023/01/24 22:17:32;;;;;;;16.05;10.45;;;;;;;21.22;53.08;101858.13;20939248;28;20456;-83
2023/01/24 22:27:34;;;;;;;15.00;9.70;;;;;;;21.24;53.33;101854.47;20927376;28;20036;-81
2023/01/24 22:37:41;;;;;;;14.03;10.03;;;;;;;21.18;53.45;101856.56;20945384;28;20056;-82
2023/01/24 22:47:46;;;;;;;16.38;9.95;;;;;;;21.13;53.30;101869.13;20941994;28;20051;-84
2023/01/24 22:57:48;;;;;;;14.02;9.93;;;;;;;21.12;53.82;101863.03;20968377;28;20059;-85
2023/01/24 23:07:49;;;;;;;15.18;9.88;;;;;;;21.12;53.73;101870.94;20949689;28;20045;-84
2023/01/24 23:17:51;;;;;;;15.15;10.07;;;;;;;21.10;54.22;101867.53;20940643;28;20052;-82
2023/01/24 23:27:52;;;;;;;15.03;9.90;;;;;;;21.07;53.90;101873.81;20958572;28;20049;-82
2023/01/24 23:37:53;;;;;;;15.60;9.45;;;;;;;21.06;53.56;101863.38;20933790;28;20064;-81
2023/01/24 23:47:53;;;;;;;13.98;9.55;;;;;;;21.02;53.92;101857.41;20935862;28;20075;-83
2023/01/24 23:57:54;;;;;;;16.70;9.07;;;;;;;21.01;53.86;101857.50;20948162;28;20143;-84
